Forside
METAR-TAF:

METAR-TAF

Lufthavne :

Area_Regional_Airport

South Haven, Michigan, USA

Breddekreds: 42-21-03N, længdekreds: 086-15-22W, højde: 203 m

Aktuelle vejr

Denne rapport blev lavet for 23 minutter siden, kl. 17:56 UTC
Vind 15 kt fra vestsydvest med vindstød på up til 19 kt
Temperatur 9°C
Fugtighed 46%
Tryk 1014 hPa
Sigt: 16.1 km
skyfri

METAR: KLWA 231756Z AUTO 25015G19KT 10SM CLR 09/M02 A2993 RMK AO2 T00861025 10087 20004

Tid: 13:19 (18:19 UTC)


TAF: fraværende

Vejrobservationer og prognoser fra mere end 4000 lufthavne (METAR og TAF).

De gule og røde prikker repræsenterer de meteorologiske stationer.

Flyt musen over at se navnet på stationen.

Så klik over at se vejr observationer og prognoser.

At skifte det kort: Klik på de grønne knapper med et sort kors for at zoome ind; på den grønne knap med en bindestreg for at zoome ud; eller på de grønne pile for tilstødende kort.


METAR-TAF: